Observations for Trim Market St
| Time | AQI | Temp °C | Hum % | Pres Pa | CO μg/m³ | H₂S μg/m³ | NO μg/m³ | NO₂ μg/m³ | O₃ μg/m³ | SO₂ μg/m³ | PM1 μg/m³ | PM2.5 μg/m³ | PM10 μg/m³ |
|---|---|---|---|---|---|---|---|---|---|---|---|---|---|
| Monday 13 July 2026 | |||||||||||||
| 19:03 | 1 | 24.5 | 42 | 64,950 | 0 | 0 | 0 | 5.05 | 31.26 | 0 | 0.71 | 4.36 | 5.94 |
| 19:02 | 1 | 24.5 | 42 | 64,973 | 0 | 0 | 0 | 4.96 | 33.98 | 0 | 1.43 | 4.89 | 5.15 |
| 19:01 | 1 | 24.5 | 42 | 64,975 | 0 | 0 | 0 | 5.68 | 34.45 | 0 | 1.43 | 4.37 | 5.94 |
| 19:00 | 1 | 24.5 | 42 | 65,003 | 0 | 0 | 0 | 4.38 | 29.12 | 0 | 1.43 | 3.85 | 4.23 |
| 18:55 | 1 | 24.5 | 42 | 64,956 | 0 | 0 | 0 | 5.95 | 25.89 | 0 | 1.43 | 4.36 | 5.94 |
| 18:53 | 1 | 24.5 | 42 | 64,917 | 0 | 0 | 0 | 7.74 | 29.04 | 0 | 1.43 | 4.36 | 4.36 |
| 18:52 | 1 | 24.5 | 42 | 64,925 | 0 | 0 | 0 | 7.05 | 30.52 | 0 | 1.43 | 4.36 | 4.8 |
| 18:43 | 1 | 24.6 | 42 | 65,078 | 0 | 0 | 0 | 5.11 | 32.13 | 0 | 0.71 | 3.87 | 4.26 |
| 18:40 | 1 | 24.6 | 42 | 65,105 | 0 | 0 | 0 | 7.61 | 26.44 | 0 | 1.43 | 3.87 | 4.26 |
| 18:39 | 1 | 24.6 | 42 | 65,109 | 0 | 0 | 0 | 4.39 | 28.34 | 0 | 0.71 | 3.34 | 3.67 |
| 18:38 | 1 | 24.6 | 42 | 65,117 | 0 | 0 | 0 | 4.09 | 28.63 | 0 | 1.43 | 3.87 | 4.25 |
| 18:37 | 1 | 24.6 | 42 | 65,064 | 0 | 0 | 0 | 4.78 | 30.26 | 0 | 2.14 | 4.39 | 4.83 |
| 18:36 | 1 | 24.6 | 42 | 65,058 | 0 | 0 | 0 | 3.96 | 29.05 | 0 | 1.43 | 3.85 | 5.14 |
| 18:35 | 1 | 24.7 | 42 | 64,989 | 0 | 0 | 0 | 2.73 | 21.36 | 0 | 1.43 | 4.38 | 4.82 |
| 18:34 | 1 | 24.7 | 42 | 64,923 | 0 | 0 | 0 | 7.21 | 26.58 | 0 | 1.43 | 3.84 | 4.23 |
| 18:33 | 1 | 24.6 | 42 | 64,896 | 0 | 0 | 0 | 5.52 | 26.01 | 0 | 0.71 | 3.31 | 3.57 |
| 18:31 | 1 | 24.7 | 43 | 64,754 | 0 | 0 | 0 | 3.75 | 23.34 | 0 | 1.43 | 4.35 | 5.16 |
| 18:30 | 1 | 24.7 | 43 | 64,676 | 0 | 0 | 0 | 6.93 | 29.75 | 0 | 2.14 | 4.34 | 4.37 |
| 18:29 | 1 | 24.7 | 43 | 64,580 | 0 | 0.04 | 0 | 7.84 | 31.24 | 0 | 2.14 | 4.34 | 5.16 |
| 18:28 | 1 | 24.7 | 43 | 64,544 | 0 | 0 | 0 | 7.54 | 29.82 | 0 | 2.85 | 4.87 | 5.16 |